Aérodrome :
LOGIN :

S'inscrire | Disclaimer

   EN    FR    IT 

 










Légende :    VFR   VFR Marginal   IFR   IFR Intensif   IFR Très Intensif
Visi : 
Plafond : 
>= 8 km
>= 3000ft
5 à 8 km
1000 à 3000 ft
1500m à 5 km
500 à 1000 ft
800 à 1500m
200 à 500 ft
< 800m
< 200 ft
Symboles :   Orages  Brouillard  Fortes neiges  Fortes précipitations  Vent > 20 kt
SIGMETs :   Divers  Orages  Givrage  Turbulence  Onde Orograph.  Cendres Volcan.







- Altitude de l'aérodrome : 1504 ft
- Code IATA : PNA


LEPP - Noain Pamplona

DERNIER METAR :
  • 202000Z 15008KT CAVOK 18/08 Q1021

METARs EXPIRÉS :
  • 201930Z 14007KT CAVOK 18/08 Q1021
  • 201900Z 16006KT 110V190 CAVOK 18/08 Q1021
  • 201830Z 17006KT 140V210 CAVOK 19/08 Q1020
  • 201800Z 16009KT 120V200 CAVOK 20/09 Q1020
  • 201730Z 18010KT 150V250 CAVOK 21/08 Q1020

TAF TAF LEPP
Valide du 20 à 15h jusqu'au 21 à 15h UTC


201400Z 2015/2115 18009KT 9999 FEW040 TX24/2115Z TN09/2105Z
PROB40
TEMPO 2112/2115 17015G25KT
Pas de NOTAMs connus pour ce terrain.
1 SIGMET publié pour la FIR Madrid (LECM) :
 
Orages noyés dans la masse
LECM SIGMET 3 VALID 202021/202200 LEVA
LECM MADRID FIR/UIR EMBD TS OBS AT 2021Z S OF LINE N3630 W006 - N3630 W005 TOP FL400 STNR NC=



MET'MAP, la Météo Aéronautique d'un coup d'oeil ! - Copyright ORBIFLY Décembre 2007 - Disclaimer

ORBIFLY MET'MAP TEAM :

Programmation & Développement : Alexandra Zaïnal
Conception & Développement : Baudouin d'Aumeries
Co-Programmation & Développement : Marc-Olivier Méhu
Soutien technique & logistique : Manuel Goepfert

Contact : metmap@orbifly.com




SOURCES & CREDITS :

   NOAA